C29

Middleton Municipal - Morey Field Airport

Middleton, Wisconsin, USA
METAR KC29 172335Z AUTO 03004KT 10SM OVC029 M01/M05 A3035 RMK AO1 T10151050
Observed Flight Rules
Nov-17 @ 23:35 UTC (12 minutes ago) Marginal Visual Flight Rules
Wind Visibility Clouds
30° at 4 knots 10 miles
  • Overcast at 2,900' AGL
Temperatures Readings
Current -2°C / 28°F
Dewpoint -5°C / 23°F
Humidity 80%
Altimeter 30.35" Hg
Pressure 1028 hPa
Elevation 283
METAR KC29 172335Z AUTO 03004KT 10SM OVC029 M01/M05 A3035 RMK AO1 T10151050
Observed Flight Rules
Nov-17 @ 23:35 UTC
(12 minutes ago)
MVFR
Wind Visibility
30° at 4 knots 10 miles
Clouds
  • Overcast at 2,900' AGL
Temperature Dewpoint
-2°C / 28°F -5°C / 23°F
Humidity Altimeter Pressure
80% 30.35" Hg 1028 hPa